Time;durP1;ratioP1;P1;durP2;ratioP2;P2;SDS_P1;SDS_P2;PMS_P1;PMS_P2;Temp;Humidity;BMP_temperature;BMP_pressure;BME280_temperature;BME280_humidity;BME280_pressure;Samples;Min_cycle;Max_cycle;Signal;HPM_P1;HPM_P2
2021/09/08 00:02:09;;;;;;;12.02;8.00;;;;;;;;;;5091691;28;20233;-47
2021/09/08 00:04:35;;;;;;;9.43;7.75;;;;;;;;;;5094715;28;20180;-47
2021/09/08 00:07:01;;;;;;;11.25;8.45;;;;;;;;;;5088979;28;20265;-47
2021/09/08 00:09:27;;;;;;;9.68;7.57;;;;;;;;;;5094539;28;20561;-46
2021/09/08 00:11:53;;;;;;;9.60;7.85;;;;;;;;;;5093112;28;20599;-47
2021/09/08 00:14:19;;;;;;;9.45;7.20;;;;;;;;;;5083275;28;20179;-47
2021/09/08 00:16:45;;;;;;;9.85;7.50;;;;;;;;;;5074718;28;20558;-47
2021/09/08 00:19:11;;;;;;;9.43;7.40;;;;;;;;;;5074067;28;20167;-46
2021/09/08 00:21:36;;;;;;;8.45;6.82;;;;;;;;;;5081618;28;20186;-47
2021/09/08 00:24:02;;;;;;;8.40;7.05;;;;;;;;;;5094863;28;20188;-47
2021/09/08 00:26:28;;;;;;;9.40;7.70;;;;;;;;;;5092931;28;20205;-46
2021/09/08 00:28:54;;;;;;;8.73;7.20;;;;;;;;;;5093705;28;20212;-46
2021/09/08 00:31:20;;;;;;;9.63;7.43;;;;;;;;;;5083678;28;20189;-46
2021/09/08 00:33:46;;;;;;;11.73;7.63;;;;;;;;;;5084079;28;20549;-46
2021/09/08 00:36:12;;;;;;;8.45;7.55;;;;;;;;;;5094208;28;20284;-47
2021/09/08 00:38:38;;;;;;;9.18;7.28;;;;;;;;;;5092033;28;20197;-47
2021/09/08 00:41:04;;;;;;;8.90;7.57;;;;;;;;;;5084254;28;20218;-47
2021/09/08 00:43:30;;;;;;;8.93;7.72;;;;;;;;;;5094290;28;20224;-46
2021/09/08 00:45:57;;;;;;;8.63;7.18;;;;;;;;;;5093203;28;20491;-47
2021/09/08 00:48:23;;;;;;;8.65;7.72;;;;;;;;;;5094109;28;20223;-47
2021/09/08 00:50:50;;;;;;;9.48;6.82;;;;;;;;;;5086261;28;20217;-47
2021/09/08 00:53:20;;;;;;;10.32;6.93;;;;;;;;;;5096750;28;20189;-47
2021/09/08 00:55:46;;;;;;;10.50;7.15;;;;;;;;;;5091309;28;20190;-46
2021/09/08 00:58:12;;;;;;;7.70;6.53;;;;;;;;;;5085581;28;20432;-46
2021/09/08 01:00:39;;;;;;;8.73;7.47;;;;;;;;;;5096108;28;20197;-47
2021/09/08 01:03:05;;;;;;;9.68;6.95;;;;;;;;;;5096709;28;20177;-46
2021/09/08 01:05:31;;;;;;;10.27;7.40;;;;;;;;;;5093378;28;20194;-47
2021/09/08 01:07:59;;;;;;;9.38;7.03;;;;;;;;;;5077451;28;20174;-47
2021/09/08 01:10:25;;;;;;;8.18;6.72;;;;;;;;;;5091581;28;20549;-47
2021/09/08 01:12:51;;;;;;;8.20;6.40;;;;;;;;;;5082056;28;20534;-46
2021/09/08 01:15:17;;;;;;;8.52;6.97;;;;;;;;;;5096517;28;20202;-46
2021/09/08 01:17:43;;;;;;;8.80;6.78;;;;;;;;;;5097317;28;20564;-46
2021/09/08 01:20:09;;;;;;;8.15;6.88;;;;;;;;;;5097433;28;20188;-46
2021/09/08 01:22:52;;;;;;;7.43;6.72;;;;;;;;;;5084201;28;20170;-47
2021/09/08 01:25:22;;;;;;;8.55;6.90;;;;;;;;;;5083592;28;20183;-47
2021/09/08 01:27:50;;;;;;;8.95;6.82;;;;;;;;;;5090706;28;20186;-46
2021/09/08 01:30:17;;;;;;;7.30;6.50;;;;;;;;;;5083346;28;20257;-46
2021/09/08 01:32:43;;;;;;;7.68;6.63;;;;;;;;;;5076654;28;20421;-46
2021/09/08 01:35:10;;;;;;;8.80;6.72;;;;;;;;;;5088515;28;20215;-46
2021/09/08 01:37:36;;;;;;;9.13;7.53;;;;;;;;;;5091960;28;20186;-46
2021/09/08 01:40:03;;;;;;;14.55;6.38;;;;;;;;;;5094121;28;20174;-46
2021/09/08 01:42:29;;;;;;;7.82;6.43;;;;;;;;;;5097168;28;20186;-46
2021/09/08 01:44:55;;;;;;;8.00;6.95;;;;;;;;;;5097217;28;20185;-46
2021/09/08 01:47:21;;;;;;;8.90;6.60;;;;;;;;;;5089850;28;20588;-47
2021/09/08 01:49:47;;;;;;;8.02;6.63;;;;;;;;;;5097260;28;20205;-46
2021/09/08 01:52:13;;;;;;;6.90;5.90;;;;;;;;;;5097005;28;20217;-46
2021/09/08 01:54:39;;;;;;;7.68;6.68;;;;;;;;;;5097317;28;20185;-46
2021/09/08 01:57:05;;;;;;;7.03;6.32;;;;;;;;;;5095909;28;20196;-46
2021/09/08 01:59:31;;;;;;;8.38;6.70;;;;;;;;;;5080365;28;20200;-47
2021/09/08 02:01:58;;;;;;;6.95;5.80;;;;;;;;;;5076670;28;20449;-46
2021/09/08 02:04:24;;;;;;;9.90;7.20;;;;;;;;;;5088420;28;20165;-46
2021/09/08 02:06:51;;;;;;;7.63;6.50;;;;;;;;;;5096718;28;20192;-46
2021/09/08 02:09:17;;;;;;;9.48;7.15;;;;;;;;;;5090438;28;20174;-46
2021/09/08 02:11:44;;;;;;;7.65;6.47;;;;;;;;;;5096883;28;20166;-46
2021/09/08 02:14:10;;;;;;;11.45;6.78;;;;;;;;;;5087027;28;20546;-46
2021/09/08 02:16:36;;;;;;;7.75;6.55;;;;;;;;;;5091425;28;20213;-47
2021/09/08 02:19:02;;;;;;;7.53;6.72;;;;;;;;;;5095620;28;20178;-46
2021/09/08 02:21:28;;;;;;;8.65;6.88;;;;;;;;;;5096534;28;20182;-47
2021/09/08 02:23:54;;;;;;;9.60;6.28;;;;;;;;;;5096529;28;20177;-46
2021/09/08 02:26:20;;;;;;;7.85;6.68;;;;;;;;;;5094805;28;20195;-46
2021/09/08 02:28:46;;;;;;;7.38;6.57;;;;;;;;;;5095621;28;20169;-46
2021/09/08 02:31:12;;;;;;;8.00;6.47;;;;;;;;;;5095530;28;20703;-46
2021/09/08 02:33:38;;;;;;;11.10;6.75;;;;;;;;;;5096248;28;20181;-46
2021/09/08 02:36:05;;;;;;;8.27;6.57;;;;;;;;;;5096072;28;20222;-46
2021/09/08 02:38:31;;;;;;;6.80;6.07;;;;;;;;;;5093367;28;20337;-46
2021/09/08 02:40:59;;;;;;;7.70;6.57;;;;;;;;;;5092397;28;20190;-46
2021/09/08 02:43:25;;;;;;;7.40;6.20;;;;;;;;;;5085837;28;20568;-46
2021/09/08 02:45:51;;;;;;;9.00;6.13;;;;;;;;;;5096443;28;20192;-47
2021/09/08 02:48:17;;;;;;;7.57;6.40;;;;;;;;;;5091687;28;20554;-46
2021/09/08 02:50:43;;;;;;;7.13;5.88;;;;;;;;;;5077087;28;20263;-46
2021/09/08 02:53:09;;;;;;;8.55;6.05;;;;;;;;;;5076008;28;20609;-46
2021/09/08 02:55:35;;;;;;;7.63;6.20;;;;;;;;;;5076913;28;20273;-46
2021/09/08 02:58:01;;;;;;;8.30;6.30;;;;;;;;;;5084892;28;20573;-46
2021/09/08 03:00:27;;;;;;;7.53;6.65;;;;;;;;;;5091285;28;20174;-46
2021/09/08 03:02:53;;;;;;;8.68;6.05;;;;;;;;;;5075581;28;20191;-47
2021/09/08 03:05:20;;;;;;;6.55;5.95;;;;;;;;;;5089448;28;20591;-47
2021/09/08 03:07:45;;;;;;;7.50;6.30;;;;;;;;;;5095112;28;20178;-47
2021/09/08 03:10:12;;;;;;;7.25;5.90;;;;;;;;;;5088418;28;20186;-47
2021/09/08 03:12:38;;;;;;;8.18;6.18;;;;;;;;;;5095541;28;20615;-47
2021/09/08 03:15:05;;;;;;;7.55;5.95;;;;;;;;;;5095222;28;20205;-47
2021/09/08 03:17:31;;;;;;;8.95;6.28;;;;;;;;;;5094930;28;20573;-47
2021/09/08 03:19:57;;;;;;;7.30;6.32;;;;;;;;;;5078708;28;20223;-47
2021/09/08 03:22:23;;;;;;;7.18;6.38;;;;;;;;;;5075316;28;20744;-46
2021/09/08 03:24:49;;;;;;;7.80;5.88;;;;;;;;;;5084528;28;20575;-47
2021/09/08 03:27:15;;;;;;;9.20;6.30;;;;;;;;;;5094792;28;20178;-46
2021/09/08 03:29:41;;;;;;;7.10;6.28;;;;;;;;;;5080676;28;20189;-47
2021/09/08 03:32:07;;;;;;;7.47;6.43;;;;;;;;;;5092769;28;20237;-47
2021/09/08 03:34:33;;;;;;;7.82;6.10;;;;;;;;;;5095051;28;20184;-47
2021/09/08 03:36:59;;;;;;;7.78;6.25;;;;;;;;;;5078858;28;20534;-47
2021/09/08 03:39:25;;;;;;;6.72;5.93;;;;;;;;;;5095338;28;20173;-47
2021/09/08 03:41:51;;;;;;;8.95;6.10;;;;;;;;;;5115818;28;20439;-47
2021/09/08 03:44:17;;;;;;;7.60;6.10;;;;;;;;;;5107792;28;20189;-47
2021/09/08 03:46:43;;;;;;;8.38;6.28;;;;;;;;;;5100455;28;20170;-47
2021/09/08 03:49:09;;;;;;;6.72;5.97;;;;;;;;;;5093966;28;20192;-47
2021/09/08 03:51:35;;;;;;;6.82;6.10;;;;;;;;;;5093251;28;20485;-47
2021/09/08 03:54:01;;;;;;;7.22;6.10;;;;;;;;;;5095138;28;20165;-46
2021/09/08 03:56:27;;;;;;;6.72;6.00;;;;;;;;;;5080021;28;20202;-47
2021/09/08 03:58:53;;;;;;;7.18;5.72;;;;;;;;;;5080877;28;20433;-47
2021/09/08 04:01:19;;;;;;;6.38;5.72;;;;;;;;;;5094026;28;20194;-47
2021/09/08 04:03:49;;;;;;;7.78;6.00;;;;;;;;;;5095032;28;20170;-47
2021/09/08 04:06:15;;;;;;;8.98;6.30;;;;;;;;;;5083772;28;20618;-46
2021/09/08 04:08:41;;;;;;;8.40;6.60;;;;;;;;;;5079150;28;20178;-47
2021/09/08 04:11:07;;;;;;;7.30;6.57;;;;;;;;;;5094389;28;20189;-47
2021/09/08 04:13:36;;;;;;;7.38;5.88;;;;;;;;;;5093358;28;20560;-47
2021/09/08 04:16:02;;;;;;;8.80;6.45;;;;;;;;;;5085251;28;20202;-47
2021/09/08 04:18:28;;;;;;;8.23;6.20;;;;;;;;;;5080524;28;20188;-47
2021/09/08 04:20:54;;;;;;;8.35;5.97;;;;;;;;;;5094338;28;20196;-47
2021/09/08 04:23:20;;;;;;;8.52;6.60;;;;;;;;;;5094855;28;20166;-48
2021/09/08 04:25:46;;;;;;;8.30;6.38;;;;;;;;;;5094642;28;20219;-47
2021/09/08 04:28:12;;;;;;;8.30;6.93;;;;;;;;;;5096677;28;20256;-47
2021/09/08 04:30:38;;;;;;;12.88;7.25;;;;;;;;;;5078384;28;20213;-47
2021/09/08 04:33:04;;;;;;;14.18;8.48;;;;;;;;;;5095205;28;20204;-46
2021/09/08 04:35:30;;;;;;;10.02;7.57;;;;;;;;;;5093893;28;20582;-47
2021/09/08 04:37:55;;;;;;;10.52;7.50;;;;;;;;;;5086553;28;20280;-46
2021/09/08 04:40:21;;;;;;;8.52;7.60;;;;;;;;;;5093865;28;20187;-47
2021/09/08 04:42:47;;;;;;;11.23;8.68;;;;;;;;;;5078285;28;20661;-47
2021/09/08 04:45:13;;;;;;;10.15;7.90;;;;;;;;;;5083790;28;20181;-47
2021/09/08 04:47:39;;;;;;;13.32;8.18;;;;;;;;;;5098146;28;20174;-47
2021/09/08 04:50:06;;;;;;;11.80;8.48;;;;;;;;;;5095939;28;20177;-47
2021/09/08 04:52:34;;;;;;;13.88;8.65;;;;;;;;;;5098229;28;20178;-47
2021/09/08 04:55:00;;;;;;;13.93;7.97;;;;;;;;;;5098231;28;20190;-47
2021/09/08 04:57:26;;;;;;;13.68;8.45;;;;;;;;;;5097721;28;20525;-47
2021/09/08 04:59:52;;;;;;;14.90;9.02;;;;;;;;;;5097977;28;20182;-47
2021/09/08 05:02:18;;;;;;;11.05;7.90;;;;;;;;;;5092587;28;20182;-47
2021/09/08 05:04:44;;;;;;;10.02;7.82;;;;;;;;;;5097836;28;20185;-47
2021/09/08 05:07:10;;;;;;;12.70;8.07;;;;;;;;;;5097463;28;20588;-47
2021/09/08 05:09:36;;;;;;;10.02;7.70;;;;;;;;;;5093250;28;20193;-47
2021/09/08 05:12:03;;;;;;;11.10;8.35;;;;;;;;;;5097422;28;20174;-47
2021/09/08 05:14:29;;;;;;;12.93;7.32;;;;;;;;;;5097865;28;20182;-47
2021/09/08 05:16:55;;;;;;;9.65;7.55;;;;;;;;;;5097369;28;20234;-47
2021/09/08 05:19:21;;;;;;;11.13;7.30;;;;;;;;;;5097377;28;20186;-46
2021/09/08 05:21:47;;;;;;;9.93;7.45;;;;;;;;;;5082637;28;20179;-47
2021/09/08 05:24:13;;;;;;;8.93;7.28;;;;;;;;;;5077665;28;20173;-47
2021/09/08 05:26:39;;;;;;;11.88;6.97;;;;;;;;;;5091103;28;20178;-47
2021/09/08 05:29:06;;;;;;;9.80;7.43;;;;;;;;;;5096576;28;20201;-47
2021/09/08 05:31:32;;;;;;;7.70;6.78;;;;;;;;;;5085138;28;20277;-47
2021/09/08 05:33:58;;;;;;;8.57;6.70;;;;;;;;;;5077352;28;20265;-47
2021/09/08 05:36:24;;;;;;;8.02;6.18;;;;;;;;;;5077218;28;20573;-46
2021/09/08 05:38:50;;;;;;;7.72;6.70;;;;;;;;;;5100541;28;20181;-46
2021/09/08 05:41:16;;;;;;;8.73;6.95;;;;;;;;;;5105093;28;20189;-47
2021/09/08 05:43:42;;;;;;;8.20;7.15;;;;;;;;;;5103957;28;20439;-46
2021/09/08 05:46:08;;;;;;;12.02;7.22;;;;;;;;;;5109218;28;20181;-47
2021/09/08 05:48:35;;;;;;;9.52;6.95;;;;;;;;;;5113540;28;20232;-47
2021/09/08 05:51:02;;;;;;;9.20;6.55;;;;;;;;;;5077174;28;20222;-47
2021/09/08 05:53:28;;;;;;;10.68;6.90;;;;;;;;;;5089734;28;20227;-47
2021/09/08 05:55:55;;;;;;;8.52;6.20;;;;;;;;;;5096196;28;20225;-46
2021/09/08 05:58:21;;;;;;;9.63;7.07;;;;;;;;;;5096418;28;20166;-47
2021/09/08 06:00:47;;;;;;;9.25;7.25;;;;;;;;;;5077156;28;20177;-47
2021/09/08 06:03:13;;;;;;;9.20;6.45;;;;;;;;;;5076949;28;20245;-47
2021/09/08 06:05:39;;;;;;;8.98;7.18;;;;;;;;;;5081954;28;20204;-47
2021/09/08 06:08:05;;;;;;;9.32;7.13;;;;;;;;;;5096550;28;20206;-46
2021/09/08 06:10:31;;;;;;;9.02;6.72;;;;;;;;;;5095904;28;20162;-47
2021/09/08 06:12:57;;;;;;;11.05;7.30;;;;;;;;;;5096972;28;20458;-47
2021/09/08 06:15:23;;;;;;;8.63;6.90;;;;;;;;;;5076604;28;20284;-47
2021/09/08 06:17:49;;;;;;;11.13;7.32;;;;;;;;;;5076185;28;20189;-47
2021/09/08 06:20:15;;;;;;;13.60;7.78;;;;;;;;;;5088085;28;20170;-47
2021/09/08 06:22:41;;;;;;;8.10;7.30;;;;;;;;;;5075836;28;20174;-47
2021/09/08 06:25:08;;;;;;;10.15;7.72;;;;;;;;;;5076306;28;20166;-47
2021/09/08 06:27:34;;;;;;;11.73;7.75;;;;;;;;;;5075990;28;20175;-47
2021/09/08 06:30:00;;;;;;;13.93;7.88;;;;;;;;;;5089310;28;20205;-46
2021/09/08 06:32:26;;;;;;;10.18;7.43;;;;;;;;;;5096556;28;20173;-47
2021/09/08 06:34:53;;;;;;;11.55;7.57;;;;;;;;;;5076246;28;20206;-47
2021/09/08 06:37:19;;;;;;;12.63;8.18;;;;;;;;;;5095196;28;20259;-47
2021/09/08 06:39:45;;;;;;;12.40;7.47;;;;;;;;;;5095142;28;20216;-47
2021/09/08 06:42:11;;;;;;;11.73;8.30;;;;;;;;;;5094770;28;20684;-46
2021/09/08 06:44:37;;;;;;;11.13;7.82;;;;;;;;;;5096254;28;20535;-47
2021/09/08 06:47:03;;;;;;;13.18;8.02;;;;;;;;;;5095400;28;20166;-47
2021/09/08 06:49:29;;;;;;;10.80;8.40;;;;;;;;;;5095009;28;20166;-47
2021/09/08 06:51:55;;;;;;;11.27;7.72;;;;;;;;;;5095517;28;20192;-47
2021/09/08 06:54:21;;;;;;;9.10;7.90;;;;;;;;;;5095987;28;20178;-47
2021/09/08 06:56:47;;;;;;;11.63;7.63;;;;;;;;;;5080890;28;20509;-47
2021/09/08 06:59:12;;;;;;;10.98;8.20;;;;;;;;;;5078931;28;20166;-47
2021/09/08 07:01:38;;;;;;;9.45;7.88;;;;;;;;;;5081540;28;20447;-47
2021/09/08 07:04:04;;;;;;;10.90;7.90;;;;;;;;;;5075620;28;20171;-47
2021/09/08 07:06:31;;;;;;;10.90;7.90;;;;;;;;;;5075502;28;20183;-46
2021/09/08 07:08:57;;;;;;;9.60;7.78;;;;;;;;;;5083028;28;20186;-46
2021/09/08 07:11:23;;;;;;;9.43;8.40;;;;;;;;;;5075463;28;20212;-47
2021/09/08 07:13:49;;;;;;;10.88;8.60;;;;;;;;;;5083861;28;20188;-47
2021/09/08 07:16:15;;;;;;;10.38;8.38;;;;;;;;;;5095390;28;20210;-47
2021/09/08 07:18:41;;;;;;;11.85;8.23;;;;;;;;;;5094196;28;20178;-47
2021/09/08 07:21:07;;;;;;;11.93;8.45;;;;;;;;;;5075262;28;20488;-46
2021/09/08 07:23:33;;;;;;;12.20;7.93;;;;;;;;;;5075362;28;20911;-47
2021/09/08 07:25:59;;;;;;;11.52;8.73;;;;;;;;;;5075246;28;20209;-46
2021/09/08 07:28:26;;;;;;;12.98;8.45;;;;;;;;;;5090165;28;20185;-47
2021/09/08 07:30:55;;;;;;;10.75;8.55;;;;;;;;;;5075250;28;20190;-46
2021/09/08 07:33:22;;;;;;;11.82;8.85;;;;;;;;;;5075254;28;20179;-47
2021/09/08 07:35:48;;;;;;;11.82;8.65;;;;;;;;;;5074758;28;20233;-47
2021/09/08 07:38:18;;;;;;;14.90;9.27;;;;;;;;;;5085026;28;20178;-47
2021/09/08 07:40:45;;;;;;;11.77;8.95;;;;;;;;;;5088196;28;20602;-47
2021/09/08 07:43:11;;;;;;;10.15;8.45;;;;;;;;;;5083135;28;20219;-47
2021/09/08 07:45:38;;;;;;;9.93;8.32;;;;;;;;;;5084667;28;20232;-47
2021/09/08 07:48:04;;;;;;;11.52;9.32;;;;;;;;;;5074327;28;20174;-47
2021/09/08 07:50:30;;;;;;;11.30;8.90;;;;;;;;;;5093442;28;20491;-47
2021/09/08 07:52:56;;;;;;;11.40;8.55;;;;;;;;;;5095340;28;20162;-47
2021/09/08 07:55:22;;;;;;;10.75;8.98;;;;;;;;;;5092638;28;20262;-47
2021/09/08 07:57:48;;;;;;;11.40;9.13;;;;;;;;;;5094608;28;20166;-47
2021/09/08 08:00:15;;;;;;;9.57;8.25;;;;;;;;;;5091023;28;20169;-47
2021/09/08 08:02:49;;;;;;;10.50;8.60;;;;;;;;;;5093943;28;20170;-47
2021/09/08 08:05:16;;;;;;;12.20;9.25;;;;;;;;;;5094689;28;20165;-47
2021/09/08 08:07:42;;;;;;;12.10;9.20;;;;;;;;;;5094345;28;20181;-47
2021/09/08 08:10:09;;;;;;;10.55;9.10;;;;;;;;;;5078583;28;20190;-47
2021/09/08 08:12:35;;;;;;;9.90;8.48;;;;;;;;;;5074650;28;20178;-47
2021/09/08 08:15:01;;;;;;;11.77;9.35;;;;;;;;;;5091125;28;20205;-47
2021/09/08 08:17:27;;;;;;;11.30;9.00;;;;;;;;;;5093876;28;20169;-47
2021/09/08 08:19:53;;;;;;;10.25;8.75;;;;;;;;;;5094789;28;20568;-46
2021/09/08 08:22:19;;;;;;;10.23;8.40;;;;;;;;;;5094757;28;20176;-47
2021/09/08 08:24:45;;;;;;;11.70;8.93;;;;;;;;;;5092784;28;20184;-47
2021/09/08 08:27:11;;;;;;;10.68;8.73;;;;;;;;;;5079835;28;20182;-47
2021/09/08 08:29:37;;;;;;;11.82;9.05;;;;;;;;;;5082751;28;20201;-47
2021/09/08 08:32:04;;;;;;;11.65;8.77;;;;;;;;;;5083307;28;20178;-47
2021/09/08 08:34:30;;;;;;;13.43;8.82;;;;;;;;;;5093148;28;20169;-47
2021/09/08 08:36:56;;;;;;;11.48;8.27;;;;;;;;;;5076012;28;20201;-47
2021/09/08 08:39:22;;;;;;;13.95;9.00;;;;;;;;;;5091605;28;20185;-47
2021/09/08 08:41:48;;;;;;;9.50;7.82;;;;;;;;;;5077248;28;20190;-47
2021/09/08 08:44:17;;;;;;;9.70;8.25;;;;;;;;;;5072805;28;20186;-47
2021/09/08 08:46:43;;;;;;;11.57;9.35;;;;;;;;;;5075523;28;20178;-47
2021/09/08 08:49:09;;;;;;;10.20;8.40;;;;;;;;;;5086047;28;20174;-47
2021/09/08 08:51:35;;;;;;;11.30;8.60;;;;;;;;;;5094309;28;20541;-47
2021/09/08 08:54:01;;;;;;;11.68;8.55;;;;;;;;;;5094498;28;20247;-47
2021/09/08 08:56:27;;;;;;;10.32;8.70;;;;;;;;;;5092582;28;20205;-47
2021/09/08 08:58:54;;;;;;;10.95;8.60;;;;;;;;;;5089543;28;20186;-47
2021/09/08 09:01:22;;;;;;;12.02;8.52;;;;;;;;;;5073819;28;20224;-47
2021/09/08 09:04:01;;;;;;;11.02;9.07;;;;;;;;;;5082470;28;20177;-47
2021/09/08 09:06:28;;;;;;;11.40;8.60;;;;;;;;;;5093861;28;20186;-47
2021/09/08 09:08:58;;;;;;;12.00;8.68;;;;;;;;;;5090544;28;20708;-47
2021/09/08 09:11:24;;;;;;;9.32;8.40;;;;;;;;;;5094316;28;20211;-47
2021/09/08 09:13:50;;;;;;;10.40;8.95;;;;;;;;;;5090765;28;20189;-47
2021/09/08 09:16:16;;;;;;;9.40;8.48;;;;;;;;;;5097838;28;20271;-47
2021/09/08 09:18:43;;;;;;;9.60;8.18;;;;;;;;;;5096834;28;20557;-47
2021/09/08 09:21:10;;;;;;;8.65;7.68;;;;;;;;;;5096767;28;20556;-47
2021/09/08 09:23:50;;;;;;;9.20;8.20;;;;;;;;;;5097929;28;20162;-47
2021/09/08 09:26:23;;;;;;;9.75;8.52;;;;;;;;;;5097325;28;20189;-47
2021/09/08 09:28:50;;;;;;;9.82;8.70;;;;;;;;;;5096249;28;20209;-47
2021/09/08 09:31:17;;;;;;;8.88;7.97;;;;;;;;;;5097289;28;20663;-47
2021/09/08 09:33:44;;;;;;;9.50;7.90;;;;;;;;;;5097861;28;20293;-47
2021/09/08 09:36:17;;;;;;;10.07;8.40;;;;;;;;;;5097366;28;20229;-47
2021/09/08 09:38:44;;;;;;;9.57;8.57;;;;;;;;;;5095211;28;20181;-47
2021/09/08 09:41:10;;;;;;;8.90;7.65;;;;;;;;;;5096915;28;20487;-47
2021/09/08 09:43:40;;;;;;;12.65;8.98;;;;;;;;;;5097338;28;20541;-47
2021/09/08 09:46:10;;;;;;;11.23;8.43;;;;;;;;;;5097417;28;20186;-47
2021/09/08 09:48:37;;;;;;;8.52;7.70;;;;;;;;;;5096008;28;20553;-47
2021/09/08 09:51:03;;;;;;;10.45;8.82;;;;;;;;;;5077058;28;20182;-47
2021/09/08 09:53:33;;;;;;;9.15;8.20;;;;;;;;;;5076817;28;20778;-46
2021/09/08 09:55:59;;;;;;;10.15;8.77;;;;;;;;;;5088922;28;20622;-47
2021/09/08 09:58:25;;;;;;;9.57;8.57;;;;;;;;;;5096722;28;20174;-47
2021/09/08 10:00:52;;;;;;;9.98;8.63;;;;;;;;;;5091404;28;20181;-47
2021/09/08 10:03:18;;;;;;;9.48;8.15;;;;;;;;;;5082151;28;20224;-47
2021/09/08 10:05:44;;;;;;;11.63;8.40;;;;;;;;;;5076676;28;20174;-47
2021/09/08 10:08:11;;;;;;;9.95;8.77;;;;;;;;;;5076150;28;20182;-47
2021/09/08 10:10:37;;;;;;;9.98;8.43;;;;;;;;;;5092846;28;20189;-47
2021/09/08 10:13:23;;;;;;;10.50;7.95;;;;;;;;;;5096270;28;20185;-47
2021/09/08 10:15:53;;;;;;;9.65;8.32;;;;;;;;;;5082724;28;20318;-47
2021/09/08 10:18:20;;;;;;;9.05;8.13;;;;;;;;;;5096040;28;20162;-47
2021/09/08 10:20:46;;;;;;;9.13;7.93;;;;;;;;;;5095872;28;20184;-47
2021/09/08 10:23:16;;;;;;;9.50;8.43;;;;;;;;;;5096825;28;20166;-47
2021/09/08 10:25:47;;;;;;;9.93;8.52;;;;;;;;;;5095402;28;20200;-47
2021/09/08 10:28:17;;;;;;;9.35;8.05;;;;;;;;;;5096333;28;20444;-47
2021/09/08 10:30:43;;;;;;;8.15;7.35;;;;;;;;;;5079125;28;20206;-47
2021/09/08 10:33:10;;;;;;;9.45;7.75;;;;;;;;;;5095084;28;20194;-47
2021/09/08 10:35:38;;;;;;;9.00;8.10;;;;;;;;;;5091354;28;20360;-47
2021/09/08 10:38:10;;;;;;;8.68;7.78;;;;;;;;;;5076635;28;20182;-47
2021/09/08 10:40:36;;;;;;;8.18;7.38;;;;;;;;;;5089784;28;20458;-47
2021/09/08 10:43:04;;;;;;;9.00;8.02;;;;;;;;;;5076263;28;20175;-47
2021/09/08 10:45:31;;;;;;;8.88;7.45;;;;;;;;;;5075672;28;20171;-47
2021/09/08 10:47:58;;;;;;;8.85;7.85;;;;;;;;;;5085693;28;20182;-48
2021/09/08 10:50:43;;;;;;;8.68;7.70;;;;;;;;;;5082062;28;20206;-47
2021/09/08 10:53:24;;;;;;;8.73;7.82;;;;;;;;;;5075925;28;20171;-47
2021/09/08 10:55:51;;;;;;;8.30;7.43;;;;;;;;;;5083714;28;20572;-47
2021/09/08 10:58:17;;;;;;;8.15;7.35;;;;;;;;;;5095518;28;20166;-47
2021/09/08 11:00:44;;;;;;;8.50;7.50;;;;;;;;;;5079105;28;20568;-47
2021/09/08 11:03:16;;;;;;;8.05;7.25;;;;;;;;;;5079099;28;20221;-47
2021/09/08 11:05:46;;;;;;;8.20;7.40;;;;;;;;;;5089129;28;20214;-47
2021/09/08 11:08:19;;;;;;;7.95;7.07;;;;;;;;;;5074954;28;20167;-47
2021/09/08 11:10:45;;;;;;;7.63;6.90;;;;;;;;;;5091758;28;20178;-47
2021/09/08 11:13:11;;;;;;;9.35;7.32;;;;;;;;;;5094138;28;20541;-47
2021/09/08 11:15:38;;;;;;;7.55;6.75;;;;;;;;;;5075440;28;20241;-47
2021/09/08 11:18:08;;;;;;;7.30;6.60;;;;;;;;;;5075176;28;20458;-47
2021/09/08 11:20:34;;;;;;;7.18;6.50;;;;;;;;;;5092743;28;20842;-47
2021/09/08 11:23:01;;;;;;;10.68;6.30;;;;;;;;;;5095230;28;20177;-47
2021/09/08 11:25:31;;;;;;;8.80;6.55;;;;;;;;;;5091662;28;20246;-47
2021/09/08 11:27:57;;;;;;;8.18;6.65;;;;;;;;;;5074781;28;20192;-47
2021/09/08 11:30:23;;;;;;;7.55;6.20;;;;;;;;;;5087117;28;20209;-47
2021/09/08 11:32:56;;;;;;;7.55;6.43;;;;;;;;;;5087412;28;20197;-47
2021/09/08 11:35:39;;;;;;;7.20;6.45;;;;;;;;;;5082131;28;20587;-47
2021/09/08 11:38:07;;;;;;;8.02;6.45;;;;;;;;;;5084339;28;20185;-48
2021/09/08 11:40:33;;;;;;;7.00;6.38;;;;;;;;;;5089223;28;20185;-47
2021/09/08 11:43:00;;;;;;;7.30;6.53;;;;;;;;;;5095213;28;20166;-47
2021/09/08 11:45:29;;;;;;;6.72;6.03;;;;;;;;;;5094516;28;20189;-47
2021/09/08 11:47:56;;;;;;;7.30;6.60;;;;;;;;;;5093967;28;20601;-47
2021/09/08 11:50:22;;;;;;;7.38;6.28;;;;;;;;;;5086399;28;20174;-47
2021/09/08 11:52:55;;;;;;;6.25;5.65;;;;;;;;;;5095113;28;20241;-47
2021/09/08 11:55:24;;;;;;;7.25;5.80;;;;;;;;;;5091757;28;20214;-48
2021/09/08 11:57:50;;;;;;;7.00;5.75;;;;;;;;;;5074260;28;20190;-47
2021/09/08 12:00:17;;;;;;;7.22;5.90;;;;;;;;;;5084663;28;20262;-51
2021/09/08 12:02:43;;;;;;;9.45;6.13;;;;;;;;;;5094848;28;20170;-47
2021/09/08 12:05:18;;;;;;;6.72;5.90;;;;;;;;;;5077802;28;20605;-47
2021/09/08 12:07:44;;;;;;;6.28;5.68;;;;;;;;;;5087105;28;20185;-47
2021/09/08 12:10:10;;;;;;;6.40;5.78;;;;;;;;;;5086004;28;20231;-47
2021/09/08 12:12:36;;;;;;;6.57;5.20;;;;;;;;;;5094185;28;20613;-47
2021/09/08 12:15:02;;;;;;;6.25;5.65;;;;;;;;;;5077175;28;20206;-47
2021/09/08 12:17:28;;;;;;;6.65;5.95;;;;;;;;;;5074016;28;20236;-47
2021/09/08 12:19:59;;;;;;;6.32;5.72;;;;;;;;;;5082168;28;20192;-47
2021/09/08 12:22:34;;;;;;;6.47;5.60;;;;;;;;;;5094460;28;20166;-47
2021/09/08 12:25:02;;;;;;;7.22;5.57;;;;;;;;;;5074867;28;20197;-47
2021/09/08 12:27:29;;;;;;;6.75;6.07;;;;;;;;;;5093866;28;20175;-47
2021/09/08 12:29:57;;;;;;;6.75;6.00;;;;;;;;;;5085094;28;20316;-47
2021/09/08 12:32:23;;;;;;;6.63;5.90;;;;;;;;;;5074361;28;20170;-46
2021/09/08 12:34:52;;;;;;;6.00;5.38;;;;;;;;;;5074334;28;20250;-46
2021/09/08 12:37:19;;;;;;;6.22;5.63;;;;;;;;;;5077291;28;20267;-48
2021/09/08 12:39:45;;;;;;;6.32;5.72;;;;;;;;;;5093222;28;20176;-46
2021/09/08 12:42:18;;;;;;;6.15;5.50;;;;;;;;;;5093866;28;20587;-47
2021/09/08 12:44:44;;;;;;;6.70;5.25;;;;;;;;;;5094780;28;20423;-47
2021/09/08 12:47:11;;;;;;;6.00;5.40;;;;;;;;;;5093750;28;20182;-47
2021/09/08 12:49:38;;;;;;;7.53;5.78;;;;;;;;;;5093330;28;20668;-47
2021/09/08 12:52:06;;;;;;;7.50;5.13;;;;;;;;;;5078193;28;20168;-47
2021/09/08 12:54:32;;;;;;;7.18;5.32;;;;;;;;;;5096742;28;20571;-46
2021/09/08 12:56:58;;;;;;;5.85;5.20;;;;;;;;;;5088386;28;20201;-47
2021/09/08 12:59:24;;;;;;;6.38;5.70;;;;;;;;;;5097660;28;20571;-47
2021/09/08 13:01:51;;;;;;;6.78;5.03;;;;;;;;;;5082581;28;20171;-47
2021/09/08 13:04:18;;;;;;;6.00;5.32;;;;;;;;;;5078004;28;20249;-47
2021/09/08 13:06:44;;;;;;;5.97;5.35;;;;;;;;;;5078011;28;20599;-47
2021/09/08 13:09:11;;;;;;;5.65;5.13;;;;;;;;;;5077148;28;20595;-47
2021/09/08 13:11:37;;;;;;;5.75;5.25;;;;;;;;;;5097512;28;20182;-47
2021/09/08 13:14:04;;;;;;;6.95;5.18;;;;;;;;;;5091626;28;20198;-47
2021/09/08 13:16:34;;;;;;;6.18;4.72;;;;;;;;;;5077548;28;20253;-47
2021/09/08 13:19:00;;;;;;;5.57;5.07;;;;;;;;;;5094743;28;20186;-47
2021/09/08 13:21:27;;;;;;;5.82;5.03;;;;;;;;;;5094987;28;20193;-47
2021/09/08 13:23:53;;;;;;;6.20;5.20;;;;;;;;;;5096854;28;20613;-47
2021/09/08 13:26:19;;;;;;;6.25;5.40;;;;;;;;;;5097148;28;20177;-47
2021/09/08 13:28:45;;;;;;;5.82;4.90;;;;;;;;;;5096418;28;20197;-47
2021/09/08 13:31:13;;;;;;;5.60;5.00;;;;;;;;;;5077403;28;20202;-47
2021/09/08 13:33:39;;;;;;;5.90;5.15;;;;;;;;;;5094357;28;20170;-47
2021/09/08 13:36:05;;;;;;;6.22;5.20;;;;;;;;;;5097112;28;20196;-47
2021/09/08 13:38:31;;;;;;;6.95;5.25;;;;;;;;;;5094610;28;20193;-47
2021/09/08 13:40:57;;;;;;;5.30;4.80;;;;;;;;;;5084399;28;20664;-47
2021/09/08 13:43:23;;;;;;;14.98;5.07;;;;;;;;;;5090386;28;20295;-47
2021/09/08 13:45:50;;;;;;;13.82;5.95;;;;;;;;;;5097333;28;20573;-47
2021/09/08 13:48:16;;;;;;;9.38;5.22;;;;;;;;;;5096695;28;20192;-47
2021/09/08 13:50:44;;;;;;;8.05;5.38;;;;;;;;;;5080101;28;20171;-47
2021/09/08 13:53:10;;;;;;;7.28;4.95;;;;;;;;;;5086474;28;20223;-47
2021/09/08 13:55:36;;;;;;;6.80;4.88;;;;;;;;;;5096832;28;20198;-47
2021/09/08 13:58:05;;;;;;;10.85;5.47;;;;;;;;;;5096080;28;20201;-46
2021/09/08 14:00:31;;;;;;;5.68;4.82;;;;;;;;;;5087390;28;20504;-47
2021/09/08 14:02:57;;;;;;;8.55;4.72;;;;;;;;;;5083860;28;20182;-47
2021/09/08 14:05:23;;;;;;;8.70;5.53;;;;;;;;;;5096346;28;20260;-47
2021/09/08 14:07:49;;;;;;;4.93;4.43;;;;;;;;;;5079174;28;20197;-47
2021/09/08 14:10:15;;;;;;;8.20;4.88;;;;;;;;;;5089060;28;20730;-47
2021/09/08 14:12:41;;;;;;;6.55;5.13;;;;;;;;;;5096741;28;20173;-47
2021/09/08 14:15:08;;;;;;;5.65;4.57;;;;;;;;;;5085594;28;20289;-46
2021/09/08 14:17:34;;;;;;;6.18;5.57;;;;;;;;;;5096330;28;20166;-47
2021/09/08 14:20:00;;;;;;;6.40;5.38;;;;;;;;;;5086053;28;20208;-47
2021/09/08 14:22:26;;;;;;;7.05;5.53;;;;;;;;;;5076427;28;20178;-47
2021/09/08 14:24:54;;;;;;;6.22;5.20;;;;;;;;;;5076474;28;20178;-47
2021/09/08 14:27:20;;;;;;;6.13;5.25;;;;;;;;;;5096016;28;20228;-47
2021/09/08 14:29:50;;;;;;;5.43;4.93;;;;;;;;;;5088414;28;20569;-47
2021/09/08 14:32:16;;;;;;;7.00;5.38;;;;;;;;;;5095072;28;20185;-47
2021/09/08 14:34:42;;;;;;;5.25;4.75;;;;;;;;;;5075734;28;20549;-47
2021/09/08 14:37:08;;;;;;;5.80;5.20;;;;;;;;;;5093706;28;20270;-47